createdAt,value
2019-04-29T00:01:39.663Z,53.10
2019-04-29T00:04:43.470Z,43.07
2019-04-29T00:07:47.353Z,41.30
2019-04-29T00:10:51.286Z,39.70
2019-04-29T00:13:55.135Z,44.20
2019-04-29T00:17:03.633Z,38.23
2019-04-29T00:20:09.657Z,57.57
2019-04-29T00:23:13.674Z,59.33
2019-04-29T00:26:17.561Z,49.30
2019-04-29T00:29:21.375Z,38.07
2019-04-29T00:32:25.238Z,32.53
2019-04-29T00:35:29.069Z,27.67
2019-04-29T00:38:43.253Z,33.00
2019-04-29T00:42:04.727Z,25.77
2019-04-29T00:45:09.221Z,26.87
2019-04-29T00:48:13.054Z,28.40
2019-04-29T00:51:16.938Z,35.80
2019-04-29T00:54:22.299Z,34.37
2019-04-29T00:57:26.187Z,43.03
2019-04-29T01:00:40.549Z,32.60
2019-04-29T01:03:44.495Z,41.60
2019-04-29T01:06:48.323Z,42.90
2019-04-29T01:09:52.228Z,43.90
2019-04-29T01:12:56.067Z,40.43
2019-04-29T01:15:59.938Z,37.10
2019-04-29T01:19:04.075Z,38.47
2019-04-29T01:22:08.233Z,40.47
2019-04-29T01:25:12.198Z,42.23
2019-04-29T01:28:23.778Z,40.20
2019-04-29T01:31:29.182Z,38.70
2019-04-29T01:34:34.594Z,41.53
2019-04-29T01:37:39.998Z,36.53
2019-04-29T01:41:01.878Z,34.07
2019-04-29T01:44:07.249Z,24.80
2019-04-29T01:47:11.141Z,26.03
2019-04-29T01:50:15.023Z,30.30
2019-04-29T01:53:18.880Z,25.63
2019-04-29T01:56:22.686Z,22.73
2019-04-29T01:59:26.567Z,22.97
2019-04-29T02:02:30.424Z,24.27
2019-04-29T02:05:34.236Z,25.13
2019-04-29T02:08:38.054Z,24.33
2019-04-29T02:11:41.927Z,28.43
2019-04-29T02:14:45.743Z,27.73
2019-04-29T02:17:49.644Z,30.53
2019-04-29T02:20:53.493Z,33.13
2019-04-29T02:24:01.881Z,38.93
2019-04-29T02:27:05.896Z,47.07
2019-04-29T02:30:10.896Z,55.63
2019-04-29T02:33:14.729Z,54.87
2019-04-29T02:36:18.606Z,48.87
2019-04-29T02:39:26.996Z,49.57
2019-04-29T02:42:44.286Z,60.97
2019-04-29T02:45:48.120Z,69.37
2019-04-29T02:48:51.966Z,64.10
2019-04-29T02:51:55.788Z,62.03
2019-04-29T02:55:01.220Z,59.17
2019-04-29T02:58:06.635Z,70.20
2019-04-29T03:01:28.367Z,71.60
2019-04-29T03:04:33.836Z,67.93
2019-04-29T03:07:37.687Z,88.20
2019-04-29T03:10:41.511Z,77.87
2019-04-29T03:13:45.378Z,53.87
2019-04-29T03:16:49.816Z,32.67
2019-04-29T03:20:11.413Z,21.60
2019-04-29T03:23:22.835Z,21.57
2019-04-29T03:26:26.690Z,21.50
2019-04-29T03:29:30.519Z,19.73
2019-04-29T03:32:34.380Z,18.30
2019-04-29T03:35:38.444Z,17.63
2019-04-29T03:38:42.305Z,22.83
2019-04-29T03:41:46.135Z,18.00
2019-04-29T03:44:50.001Z,17.80
2019-04-29T03:47:53.830Z,20.43
2019-04-29T03:50:57.694Z,17.17
2019-04-29T03:54:01.535Z,15.77
2019-04-29T03:57:06.298Z,16.93
2019-04-29T04:00:12.640Z,14.37
2019-04-29T04:03:29.996Z,16.90
2019-04-29T04:06:35.400Z,15.13
2019-04-29T04:09:39.259Z,13.93
2019-04-29T04:12:43.075Z,14.83
2019-04-29T04:15:46.965Z,15.77
2019-04-29T04:18:52.356Z,15.00
2019-04-29T04:21:56.239Z,16.67
2019-04-29T04:25:00.045Z,20.37
2019-04-29T04:28:03.928Z,18.83
2019-04-29T04:31:07.761Z,17.13
2019-04-29T04:34:11.631Z,18.63
2019-04-29T04:37:15.454Z,20.20
2019-04-29T04:40:29.812Z,24.23
2019-04-29T04:43:33.634Z,22.27
2019-04-29T04:46:37.489Z,26.03
2019-04-29T04:49:41.314Z,26.33
2019-04-29T04:52:45.196Z,21.13
2019-04-29T04:55:50.599Z,22.97
2019-04-29T04:58:54.481Z,20.53
2019-04-29T05:01:58.304Z,21.60
2019-04-29T05:05:02.195Z,23.30
2019-04-29T05:08:06.036Z,19.57
2019-04-29T05:11:09.941Z,23.43
2019-04-29T05:14:13.764Z,23.47
2019-04-29T05:17:17.615Z,29.80
2019-04-29T05:20:21.443Z,25.43
2019-04-29T05:23:25.343Z,22.23
2019-04-29T05:26:29.157Z,19.10
2019-04-29T05:29:33.073Z,21.23
2019-04-29T05:32:36.914Z,18.87
2019-04-29T05:35:48.597Z,17.97
2019-04-29T05:38:57.001Z,16.90
2019-04-29T05:42:00.891Z,18.73
2019-04-29T05:45:18.006Z,20.60
2019-04-29T05:48:22.155Z,18.70
2019-04-29T05:51:36.278Z,19.10
2019-04-29T05:54:40.767Z,19.13
2019-04-29T05:57:44.583Z,21.20
2019-04-29T06:00:53.161Z,26.27
2019-04-29T06:03:57.040Z,26.00
2019-04-29T06:07:00.908Z,27.67
2019-04-29T06:10:06.718Z,21.23
2019-04-29T06:13:10.612Z,23.50
2019-04-29T06:16:15.975Z,18.60
2019-04-29T06:19:19.962Z,21.13
2019-04-29T06:22:24.111Z,20.97
2019-04-29T06:25:27.976Z,19.33
2019-04-29T06:28:31.827Z,22.60
2019-04-29T06:31:35.703Z,21.70
2019-04-29T06:34:40.070Z,22.30
2019-04-29T06:37:45.068Z,21.27
2019-04-29T06:40:48.885Z,19.83
2019-04-29T06:43:55.862Z,21.60
2019-04-29T06:46:58.270Z,26.03
2019-04-29T06:50:02.152Z,23.20
2019-04-29T06:53:06.410Z,23.60
2019-04-29T06:56:10.318Z,21.90
2019-04-29T06:59:14.179Z,27.30
2019-04-29T07:02:18.054Z,23.57
2019-04-29T07:05:22.053Z,21.57
2019-04-29T07:08:26.502Z,20.87
2019-04-29T07:11:31.916Z,23.17
2019-04-29T07:14:38.582Z,28.77
2019-04-29T07:17:43.080Z,22.40
2019-04-29T07:20:47.272Z,21.10
2019-04-29T07:23:51.111Z,20.13
2019-04-29T07:26:57.880Z,26.57
2019-04-29T07:30:01.731Z,29.97
2019-04-29T07:33:05.978Z,25.00
2019-04-29T07:36:11.102Z,23.07
2019-04-29T07:39:15.505Z,22.33
2019-04-29T07:42:19.329Z,21.80
2019-04-29T07:45:44.516Z,22.47
2019-04-29T07:49:00.501Z,20.97
2019-04-29T07:51:52.381Z,22.23
2019-04-29T07:54:56.334Z,18.80
2019-04-29T07:58:00.164Z,20.47
2019-04-29T08:01:03.986Z,20.77
2019-04-29T08:04:07.955Z,18.40
2019-04-29T08:07:11.775Z,16.80
2019-04-29T08:10:23.750Z,16.67
2019-04-29T08:13:22.345Z,19.50
2019-04-29T08:16:26.218Z,17.10
2019-04-29T08:19:31.554Z,15.87
2019-04-29T08:22:35.695Z,16.03
2019-04-29T08:25:39.529Z,16.50
2019-04-29T08:28:43.638Z,19.23
2019-04-29T08:31:47.477Z,17.50
2019-04-29T08:34:53.714Z,16.27
2019-04-29T08:37:56.981Z,19.77
2019-04-29T08:41:00.848Z,15.97
2019-04-29T08:44:15.653Z,16.00
2019-04-29T08:47:13.348Z,13.67
2019-04-29T08:50:17.229Z,16.83
2019-04-29T08:53:21.120Z,20.63
2019-04-29T08:56:24.946Z,22.70
2019-04-29T08:59:28.960Z,26.40
2019-04-29T09:02:35.288Z,28.83
2019-04-29T09:05:41.726Z,22.27
2019-04-29T09:08:54.682Z,19.53
2019-04-29T09:11:49.500Z,19.03
2019-04-29T09:14:53.441Z,17.97
2019-04-29T09:17:57.336Z,16.57
2019-04-29T09:21:01.187Z,17.73
2019-04-29T09:24:05.083Z,17.57
2019-04-29T09:27:11.272Z,21.70
2019-04-29T09:30:16.743Z,21.60
2019-04-29T09:33:20.562Z,23.53
2019-04-29T09:36:24.906Z,24.07
2019-04-29T09:39:42.500Z,23.20
2019-04-29T09:42:53.318Z,21.20
2019-04-29T09:46:07.751Z,17.60
2019-04-29T09:49:12.373Z,17.13
2019-04-29T09:52:17.014Z,17.27
2019-04-29T09:55:22.756Z,17.63
2019-04-29T09:58:27.129Z,22.43
2019-04-29T10:01:38.863Z,21.67
2019-04-29T10:04:56.857Z,22.47
2019-04-29T10:07:55.493Z,23.77
2019-04-29T10:10:59.318Z,26.67
2019-04-29T10:14:03.199Z,26.90
2019-04-29T10:17:26.917Z,31.17
2019-04-29T10:20:32.411Z,29.20
2019-04-29T10:23:36.226Z,27.33
2019-04-29T10:26:40.181Z,32.83
2019-04-29T10:29:45.547Z,27.33
2019-04-29T10:32:49.443Z,30.40
2019-04-29T10:35:53.274Z,31.73
2019-04-29T10:38:58.694Z,37.53
2019-04-29T10:42:04.081Z,35.43
2019-04-29T10:45:16.095Z,30.07
2019-04-29T10:48:22.074Z,31.07
2019-04-29T10:51:27.437Z,31.27
2019-04-29T10:54:34.398Z,29.27
2019-04-29T10:57:39.148Z,30.00
2019-04-29T11:01:11.706Z,25.07
2019-04-29T11:04:16.096Z,27.43
2019-04-29T11:07:26.975Z,27.63
2019-04-29T11:10:33.213Z,31.57
2019-04-29T11:13:46.190Z,27.67
2019-04-29T11:16:46.682Z,22.70
2019-04-29T11:19:48.886Z,20.77
2019-04-29T11:23:00.049Z,28.53
2019-04-29T11:26:20.425Z,23.23
2019-04-29T11:29:27.361Z,26.77
2019-04-29T11:32:37.343Z,21.93
2019-04-29T11:35:45.249Z,26.70
2019-04-29T11:38:49.085Z,24.13
2019-04-29T11:41:54.559Z,23.70
2019-04-29T11:45:02.196Z,24.30
2019-04-29T11:48:04.455Z,28.00
2019-04-29T11:51:16.074Z,26.37
2019-04-29T11:54:20.982Z,33.60
2019-04-29T11:57:43.100Z,32.10
2019-04-29T12:00:51.970Z,30.50
2019-04-29T12:03:58.344Z,36.80
2019-04-29T12:07:09.415Z,35.83
2019-04-29T12:10:14.118Z,36.03
2019-04-29T12:13:27.080Z,32.17
2019-04-29T12:16:33.032Z,36.77
2019-04-29T12:19:48.161Z,32.00
2019-04-29T12:22:52.869Z,30.70
2019-04-29T12:25:58.693Z,31.27
2019-04-29T12:29:02.296Z,33.07
2019-04-29T12:32:24.996Z,26.70
2019-04-29T12:35:31.096Z,31.20
2019-04-29T12:38:49.054Z,28.20
2019-04-29T12:41:55.358Z,27.73
2019-04-29T12:45:00.818Z,25.90
2019-04-29T12:48:06.544Z,21.73
2019-04-29T12:51:10.667Z,25.90
2019-04-29T12:54:15.432Z,24.67
2019-04-29T12:57:23.589Z,26.03
2019-04-29T13:00:47.341Z,28.27
2019-04-29T13:03:45.419Z,26.10
2019-04-29T13:07:02.865Z,25.33
2019-04-29T13:10:26.446Z,25.07
2019-04-29T13:13:30.265Z,25.63
2019-04-29T13:16:55.421Z,26.47
2019-04-29T13:20:02.294Z,30.17
2019-04-29T13:23:17.624Z,27.60
2019-04-29T13:26:11.901Z,26.50
2019-04-29T13:29:26.896Z,24.50
2019-04-29T13:32:25.370Z,24.83
2019-04-29T13:35:27.494Z,23.70
2019-04-29T13:38:31.328Z,24.30
2019-04-29T13:41:35.218Z,25.30
2019-04-29T13:44:42.668Z,22.07
2019-04-29T13:48:01.888Z,23.03
2019-04-29T13:51:05.193Z,21.27
2019-04-29T13:54:09.076Z,19.23
2019-04-29T13:57:15.854Z,20.43
2019-04-29T14:00:26.423Z,22.50
2019-04-29T14:03:42.020Z,22.97
2019-04-29T14:06:56.602Z,22.60
2019-04-29T14:09:53.395Z,22.87
2019-04-29T14:13:09.786Z,23.70
2019-04-29T14:16:02.723Z,20.27
2019-04-29T14:19:08.666Z,19.23
2019-04-29T14:22:22.122Z,22.50
2019-04-29T14:25:17.695Z,20.17
2019-04-29T14:28:21.528Z,23.50
2019-04-29T14:31:25.408Z,20.67
2019-04-29T14:34:36.835Z,24.60
2019-04-29T14:37:54.065Z,21.50
2019-04-29T14:40:46.239Z,20.90
2019-04-29T14:43:57.572Z,20.30
2019-04-29T14:47:19.001Z,21.67
2019-04-29T14:50:23.464Z,22.27
2019-04-29T14:57:37.508Z,22.37
2019-04-29T15:00:45.567Z,24.70
2019-04-29T15:03:54.169Z,29.93
2019-04-29T15:06:58.235Z,29.53
2019-04-29T15:10:02.689Z,21.57
2019-04-29T15:13:20.644Z,26.87
2019-04-29T15:16:18.415Z,27.07
2019-04-29T15:19:43.815Z,26.03
2019-04-29T15:22:45.577Z,30.17
2019-04-29T15:25:49.437Z,34.77
2019-04-29T15:28:53.322Z,27.80
2019-04-29T15:31:57.260Z,25.13
2019-04-29T15:35:01.113Z,26.10
2019-04-29T15:38:05.066Z,26.83
2019-04-29T15:41:09.022Z,28.97
2019-04-29T15:44:18.962Z,26.27
2019-04-29T15:47:18.461Z,25.83
2019-04-29T15:50:22.598Z,27.87
2019-04-29T15:53:26.441Z,25.63
2019-04-29T15:56:33.767Z,28.00
2019-04-29T15:59:48.688Z,26.67
2019-04-29T16:02:43.856Z,33.03
2019-04-29T16:06:18.902Z,29.43
2019-04-29T16:09:01.537Z,31.17
2019-04-29T16:12:15.408Z,30.70
2019-04-29T16:15:19.098Z,32.40
2019-04-29T16:18:22.996Z,29.17
2019-04-29T16:21:32.158Z,29.17
2019-04-29T16:24:38.066Z,31.87
2019-04-29T16:27:41.621Z,29.73
2019-04-29T16:30:43.471Z,32.97
2019-04-29T16:33:54.313Z,33.17
2019-04-29T16:36:53.019Z,32.07
2019-04-29T16:39:59.746Z,32.67
2019-04-29T16:43:07.018Z,32.30
2019-04-29T16:46:23.517Z,31.03
2019-04-29T16:49:24.536Z,29.30
2019-04-29T16:52:28.624Z,30.47
2019-04-29T16:55:35.861Z,27.70
2019-04-29T16:58:39.225Z,30.23
2019-04-29T17:01:43.491Z,28.70
2019-04-29T17:04:54.135Z,26.97
2019-04-29T17:07:58.346Z,28.60
2019-04-29T17:11:04.592Z,27.37
2019-04-29T17:14:10.442Z,32.43
2019-04-29T17:17:28.969Z,37.50
2019-04-29T17:20:29.239Z,38.83
2019-04-29T17:23:35.698Z,43.43
2019-04-29T17:26:55.192Z,43.60
2019-04-29T17:30:17.947Z,48.23
2019-04-29T17:35:16.999Z,52.57
2019-04-29T17:36:29.379Z,50.37
2019-04-29T17:39:33.760Z,53.47
2019-04-29T17:42:39.287Z,52.90
2019-04-29T17:45:58.616Z,48.47
2019-04-29T17:49:13.896Z,43.77
2019-04-29T17:52:25.820Z,48.03
2019-04-29T17:55:48.019Z,48.80
2019-04-29T17:58:58.436Z,53.23
2019-04-29T18:02:08.548Z,54.80
2019-04-29T18:05:16.900Z,48.00
2019-04-29T18:08:39.013Z,49.43
2019-04-29T18:11:51.640Z,49.07
2019-04-29T18:14:52.564Z,47.63
2019-04-29T18:18:00.370Z,47.63
2019-04-29T18:21:09.862Z,49.47
2019-04-29T18:24:15.445Z,49.70
2019-04-29T18:27:25.209Z,48.53
2019-04-29T18:30:35.926Z,50.10
2019-04-29T18:33:35.404Z,43.67
2019-04-29T18:36:39.393Z,42.10
2019-04-29T18:39:43.413Z,45.90
2019-04-29T18:42:48.681Z,39.30
2019-04-29T18:45:58.167Z,45.13
2019-04-29T18:49:03.096Z,47.83
2019-04-29T18:52:07.555Z,44.90
2019-04-29T18:55:11.504Z,44.77
2019-04-29T18:58:16.004Z,45.97
2019-04-29T19:01:24.107Z,48.13
2019-04-29T19:04:27.319Z,45.57
2019-04-29T19:07:31.930Z,51.53
2019-04-29T19:10:37.534Z,51.47
2019-04-29T19:13:43.477Z,53.50
2019-04-29T19:16:47.218Z,55.20
2019-04-29T19:19:51.184Z,49.53
2019-04-29T19:23:05.384Z,52.40
2019-04-29T19:26:01.413Z,49.20
2019-04-29T19:29:08.657Z,52.13
2019-04-29T19:32:11.418Z,60.43
2019-04-29T19:35:17.006Z,55.93
2019-04-29T19:38:21.393Z,60.80
2019-04-29T19:41:25.599Z,67.13
2019-04-29T19:44:33.180Z,73.30
2019-04-29T19:47:36.701Z,66.80
2019-04-29T19:50:40.927Z,59.57
2019-04-29T19:53:49.154Z,60.73
2019-04-29T19:56:55.593Z,61.87
2019-04-29T19:59:57.124Z,68.70
2019-04-29T20:03:02.377Z,55.67
2019-04-29T20:06:21.463Z,59.23
2019-04-29T20:09:22.760Z,60.33
2019-04-29T20:12:29.595Z,57.53
2019-04-29T20:15:37.758Z,61.90
2019-04-29T20:19:00.849Z,56.63
2019-04-29T20:22:00.531Z,53.80
2019-04-29T20:25:05.615Z,61.23
2019-04-29T20:28:13.162Z,58.90
2019-04-29T20:31:20.961Z,59.40
2019-04-29T20:34:24.628Z,65.23
2019-04-29T20:37:27.276Z,58.13
2019-04-29T20:40:36.266Z,62.73
2019-04-29T20:43:38.452Z,55.47
2019-04-29T20:46:51.721Z,52.97
2019-04-29T20:49:48.078Z,57.00
2019-04-29T20:53:03.040Z,57.57
2019-04-29T20:56:11.959Z,53.43
2019-04-29T20:59:15.326Z,53.10
2019-04-29T21:02:30.358Z,54.90
2019-04-29T21:05:26.884Z,54.57
2019-04-29T21:08:30.066Z,49.43
2019-04-29T21:11:35.676Z,55.47
2019-04-29T21:14:47.173Z,55.57
2019-04-29T21:17:51.062Z,52.87
2019-04-29T21:20:55.203Z,54.57
2019-04-29T21:23:59.238Z,52.73
2019-04-29T21:27:05.280Z,59.43
2019-04-29T21:30:08.927Z,54.93
2019-04-29T21:33:17.846Z,51.23
2019-04-29T21:36:19.938Z,50.07
2019-04-29T21:39:36.349Z,52.37
2019-04-29T21:42:41.456Z,46.53
2019-04-29T21:45:48.361Z,50.07
2019-04-29T21:48:50.877Z,41.30
2019-04-29T21:51:55.483Z,44.93
2019-04-29T21:54:59.577Z,45.40
2019-04-29T21:58:03.467Z,42.70
2019-04-29T22:01:08.220Z,42.33
2019-04-29T22:04:12.245Z,43.57
2019-04-29T22:07:16.177Z,39.07
2019-04-29T22:10:25.127Z,39.57
2019-04-29T22:13:26.079Z,41.20
2019-04-29T22:16:29.974Z,40.53
2019-04-29T22:19:35.137Z,38.13
2019-04-29T22:22:39.205Z,38.83
2019-04-29T22:25:45.803Z,37.33
2019-04-29T22:28:49.020Z,38.07
2019-04-29T22:31:55.882Z,35.13
2019-04-29T22:35:01.635Z,36.57
2019-04-29T22:38:07.724Z,33.50
2019-04-29T22:41:16.880Z,30.07
2019-04-29T22:44:21.780Z,31.40
2019-04-29T22:47:24.952Z,30.60
2019-04-29T22:50:28.868Z,31.13
2019-04-29T22:53:32.757Z,33.23
2019-04-29T22:56:36.518Z,33.57
2019-04-29T22:59:40.387Z,35.43
2019-04-29T23:02:44.232Z,32.87
2019-04-29T23:05:48.132Z,34.33
2019-04-29T23:08:51.993Z,34.20
2019-04-29T23:11:55.892Z,29.93
2019-04-29T23:14:59.760Z,35.53
2019-04-29T23:18:03.664Z,36.13
2019-04-29T23:21:16.270Z,34.73
2019-04-29T23:24:21.685Z,34.77
2019-04-29T23:27:25.913Z,30.40
2019-04-29T23:30:30.037Z,33.97
2019-04-29T23:33:35.979Z,28.03
2019-04-29T23:36:39.448Z,31.27
2019-04-29T23:39:43.313Z,29.93
2019-04-29T23:42:47.951Z,30.87
2019-04-29T23:45:59.057Z,34.60
2019-04-29T23:49:03.183Z,30.10
2019-04-29T23:52:06.780Z,27.03
2019-04-29T23:55:09.396Z,28.20
2019-04-29T23:58:17.743Z,27.53
